createdAt,value
2022-10-13T00:01:26.327Z,13.40
2022-10-13T00:03:53.606Z,13.57
2022-10-13T00:06:23.065Z,13.49
2022-10-13T00:08:49.654Z,13.40
2022-10-13T00:11:21.430Z,13.32
2022-10-13T00:13:49.323Z,13.26
2022-10-13T00:16:19.265Z,13.31
2022-10-13T00:18:46.295Z,13.33
2022-10-13T00:21:15.482Z,13.32
2022-10-13T00:23:42.119Z,13.20
2022-10-13T00:26:10.260Z,13.30
2022-10-13T00:28:39.115Z,13.21
2022-10-13T00:31:15.073Z,13.18
2022-10-13T00:33:42.954Z,13.20
2022-10-13T00:36:09.892Z,13.02
2022-10-13T00:38:36.805Z,13.12
2022-10-13T00:41:03.778Z,13.04
2022-10-13T00:43:51.060Z,13.13
2022-10-13T00:46:18.456Z,13.15
2022-10-13T00:48:46.103Z,13.10
2022-10-13T00:51:16.019Z,13.16
2022-10-13T00:53:44.206Z,13.07
2022-10-13T00:56:13.158Z,13.04
2022-10-13T00:58:42.226Z,13.19
2022-10-13T01:01:11.010Z,13.18
2022-10-13T01:03:38.525Z,13.19
2022-10-13T01:06:06.906Z,13.13
2022-10-13T01:08:34.758Z,13.13
2022-10-13T01:11:18.919Z,13.18
2022-10-13T01:13:51.492Z,13.21
2022-10-13T01:16:27.380Z,13.12
2022-10-13T01:18:59.846Z,13.22
2022-10-13T01:21:33.150Z,13.14
2022-10-13T01:24:31.946Z,13.21
2022-10-13T01:27:11.032Z,13.24
2022-10-13T01:30:13.291Z,13.29
2022-10-13T01:33:04.451Z,13.29
2022-10-13T01:35:43.169Z,13.28
2022-10-13T01:38:18.083Z,13.29
2022-10-13T01:40:52.426Z,13.41
2022-10-13T01:43:25.390Z,13.43
2022-10-13T01:45:57.504Z,13.37
2022-10-13T01:48:28.057Z,13.41
2022-10-13T01:50:57.215Z,13.40
2022-10-13T01:53:24.457Z,13.51
2022-10-13T01:55:53.542Z,13.46
2022-10-13T01:58:21.337Z,13.53
2022-10-13T02:01:00.668Z,13.73
2022-10-13T02:03:37.324Z,13.73
2022-10-13T02:06:15.804Z,13.79
2022-10-13T02:08:48.498Z,13.85
2022-10-13T02:11:18.243Z,13.79
2022-10-13T02:13:51.072Z,13.73
2022-10-13T02:16:18.191Z,13.69
2022-10-13T02:18:46.665Z,13.69
2022-10-13T02:21:13.297Z,13.66
2022-10-13T02:23:40.234Z,13.63
2022-10-13T02:26:06.736Z,13.63
2022-10-13T02:28:33.657Z,13.66
2022-10-13T02:31:00.240Z,13.77
2022-10-13T02:33:27.267Z,13.85
2022-10-13T02:35:55.784Z,13.85
2022-10-13T02:38:22.418Z,13.86
2022-10-13T02:40:49.315Z,13.87
2022-10-13T02:43:17.167Z,13.78
2022-10-13T02:45:43.959Z,13.79
2022-10-13T02:48:10.896Z,13.51
2022-10-13T02:50:37.802Z,13.74
2022-10-13T02:53:06.602Z,13.72
2022-10-13T02:55:33.750Z,13.77
2022-10-13T02:58:00.561Z,13.90
2022-10-13T03:00:27.298Z,13.85
2022-10-13T03:02:54.179Z,13.80
2022-10-13T03:05:20.716Z,13.89
2022-10-13T03:07:47.515Z,13.72
2022-10-13T03:10:15.993Z,13.90
2022-10-13T03:12:42.631Z,13.83
2022-10-13T03:15:10.016Z,13.72
2022-10-13T03:17:36.611Z,13.86
2022-10-13T03:20:04.013Z,13.74
2022-10-13T03:22:31.794Z,13.87
2022-10-13T03:25:00.114Z,13.82
2022-10-13T03:27:28.405Z,13.67
2022-10-13T03:29:54.997Z,13.78
2022-10-13T03:32:21.899Z,13.74
2022-10-13T03:34:49.909Z,13.61
2022-10-13T03:37:16.478Z,13.49
2022-10-13T03:39:43.067Z,13.66
2022-10-13T03:42:10.911Z,13.75
2022-10-13T03:44:39.855Z,13.72
2022-10-13T03:47:06.629Z,13.76
2022-10-13T03:49:33.478Z,13.64
2022-10-13T03:52:00.287Z,13.80
2022-10-13T03:54:27.606Z,13.68
2022-10-13T03:56:54.170Z,13.74
2022-10-13T03:59:20.767Z,13.78
2022-10-13T04:01:49.664Z,13.76
2022-10-13T04:04:16.629Z,13.87
2022-10-13T04:06:43.242Z,13.81
2022-10-13T04:09:11.126Z,13.83
2022-10-13T04:11:39.357Z,13.89
2022-10-13T04:14:06.214Z,13.82
2022-10-13T04:16:33.814Z,13.73
2022-10-13T04:19:03.896Z,13.81
2022-10-13T04:21:31.994Z,13.91
2022-10-13T04:23:59.490Z,13.89
2022-10-13T04:26:28.995Z,13.96
2022-10-13T04:28:57.102Z,13.99
2022-10-13T04:31:24.037Z,13.99
2022-10-13T04:33:51.516Z,14.20
2022-10-13T04:36:20.210Z,14.10
2022-10-13T04:38:47.707Z,14.15
2022-10-13T04:41:16.951Z,14.10
2022-10-13T04:43:43.625Z,14.38
2022-10-13T04:46:13.673Z,14.33
2022-10-13T04:48:40.869Z,14.32
2022-10-13T04:51:09.503Z,14.16
2022-10-13T04:53:37.936Z,14.21
2022-10-13T04:56:08.700Z,14.20
2022-10-13T04:58:35.676Z,14.26
2022-10-13T05:01:02.982Z,14.20
2022-10-13T05:03:29.909Z,14.13
2022-10-13T05:05:57.343Z,14.04
2022-10-13T05:08:23.984Z,14.12
2022-10-13T05:11:00.565Z,14.02
2022-10-13T05:13:28.936Z,14.16
2022-10-13T05:15:56.035Z,14.01
2022-10-13T05:18:22.898Z,14.18
2022-10-13T05:20:49.559Z,14.20
2022-10-13T05:23:16.718Z,14.29
2022-10-13T05:25:43.265Z,14.33
2022-10-13T05:28:11.409Z,14.29
2022-10-13T05:30:38.002Z,14.26
2022-10-13T05:33:04.514Z,14.30
2022-10-13T05:35:31.147Z,14.26
2022-10-13T05:37:57.703Z,14.34
2022-10-13T05:40:25.470Z,14.37
2022-10-13T05:42:53.654Z,14.41
2022-10-13T05:45:23.170Z,14.27
2022-10-13T05:47:49.992Z,14.39
2022-10-13T05:50:16.773Z,14.39
2022-10-13T05:52:44.520Z,14.26
2022-10-13T05:55:16.033Z,14.14
2022-10-13T05:57:45.770Z,14.10
2022-10-13T06:00:15.819Z,14.24
2022-10-13T06:02:49.813Z,14.23
2022-10-13T06:05:18.928Z,14.17
2022-10-13T06:07:46.859Z,14.19
2022-10-13T06:10:14.228Z,14.18
2022-10-13T06:12:40.946Z,14.19
2022-10-13T06:15:09.622Z,14.18
2022-10-13T06:17:36.392Z,14.20
2022-10-13T06:20:05.723Z,14.12
2022-10-13T06:22:32.929Z,14.31
2022-10-13T06:24:59.529Z,14.27
2022-10-13T06:27:27.509Z,14.35
2022-10-13T06:29:54.188Z,14.26
2022-10-13T06:32:21.149Z,14.32
2022-10-13T06:34:48.162Z,14.37
2022-10-13T06:37:16.071Z,14.24
2022-10-13T06:39:42.834Z,14.40
2022-10-13T06:42:09.478Z,14.45
2022-10-13T06:44:35.942Z,14.62
2022-10-13T06:47:02.737Z,14.57
2022-10-13T06:49:29.479Z,14.63
2022-10-13T06:51:56.149Z,14.74
2022-10-13T06:54:25.992Z,14.70
2022-10-13T06:56:52.523Z,14.62
2022-10-13T06:59:19.024Z,14.74
2022-10-13T07:01:45.715Z,14.87
2022-10-13T07:04:12.268Z,14.96
2022-10-13T07:06:38.855Z,15.11
2022-10-13T07:09:06.245Z,15.21
2022-10-13T07:11:34.597Z,15.30
2022-10-13T07:16:33.096Z,15.53
2022-10-13T07:18:59.997Z,15.66
2022-10-13T07:21:26.710Z,15.87
2022-10-13T07:23:53.572Z,15.99
2022-10-13T07:26:20.483Z,16.21
2022-10-13T07:28:49.264Z,16.24
2022-10-13T07:31:17.179Z,16.45
2022-10-13T07:33:45.698Z,16.35
2022-10-13T07:36:12.794Z,16.55
2022-10-13T07:38:39.909Z,16.59
2022-10-13T07:41:08.839Z,16.67
2022-10-13T07:43:35.478Z,16.67
2022-10-13T07:46:09.299Z,16.62
2022-10-13T07:48:36.397Z,16.80
2022-10-13T07:51:07.176Z,16.77
2022-10-13T07:53:33.858Z,16.87
2022-10-13T07:56:00.888Z,17.11
2022-10-13T07:58:27.957Z,17.30
2022-10-13T08:00:59.546Z,17.46
2022-10-13T08:03:28.783Z,17.43
2022-10-13T08:05:57.989Z,17.66
2022-10-13T08:08:24.734Z,17.91
2022-10-13T08:10:51.473Z,18.12
2022-10-13T08:13:18.202Z,18.33
2022-10-13T08:15:45.413Z,18.97
2022-10-13T08:18:13.448Z,19.14
2022-10-13T08:20:43.811Z,19.29
2022-10-13T08:23:11.367Z,19.53
2022-10-13T08:25:40.637Z,19.35
2022-10-13T08:28:15.681Z,19.16
2022-10-13T08:30:42.506Z,19.12
2022-10-13T08:33:10.232Z,18.45
2022-10-13T08:35:37.967Z,18.35
2022-10-13T08:38:06.184Z,18.50
2022-10-13T08:40:32.857Z,18.45
2022-10-13T08:43:00.505Z,18.55
2022-10-13T08:45:45.655Z,18.32
2022-10-13T08:48:17.116Z,18.30
2022-10-13T08:50:47.542Z,18.31
2022-10-13T08:53:22.664Z,18.29
2022-10-13T08:55:52.244Z,18.45
2022-10-13T08:58:23.137Z,18.58
2022-10-13T09:00:57.780Z,18.48
2022-10-13T09:03:26.357Z,18.43
2022-10-13T09:06:05.780Z,18.62
2022-10-13T09:08:42.951Z,18.60
2022-10-13T09:11:10.981Z,18.82
2022-10-13T09:13:37.617Z,19.25
2022-10-13T09:16:04.627Z,19.14
2022-10-13T09:18:32.685Z,19.25
2022-10-13T09:21:16.808Z,19.45
2022-10-13T09:23:45.207Z,19.59
2022-10-13T09:26:17.252Z,19.52
2022-10-13T09:28:43.869Z,19.20
2022-10-13T09:31:15.809Z,19.41
2022-10-13T09:33:42.662Z,19.37
2022-10-13T09:36:12.312Z,19.21
2022-10-13T09:38:40.446Z,19.51
2022-10-13T09:41:18.362Z,19.50
2022-10-13T09:43:59.905Z,19.50
2022-10-13T09:46:29.728Z,19.79
2022-10-13T09:48:59.890Z,19.98
2022-10-13T09:51:43.307Z,20.10
2022-10-13T09:54:39.030Z,20.49
2022-10-13T09:57:25.685Z,20.69
2022-10-13T09:59:54.030Z,20.72
2022-10-13T10:02:28.240Z,21.06
2022-10-13T10:05:00.600Z,21.22
2022-10-13T10:07:31.232Z,20.78
2022-10-13T10:10:02.522Z,20.96
2022-10-13T10:12:34.109Z,21.00
2022-10-13T10:15:01.186Z,21.15
2022-10-13T10:17:33.394Z,21.17
2022-10-13T10:20:15.231Z,21.23
2022-10-13T10:22:56.904Z,21.15
2022-10-13T10:25:33.958Z,20.97
2022-10-13T10:28:35.020Z,20.94
2022-10-13T10:31:13.216Z,21.19
2022-10-13T10:33:49.374Z,21.37
2022-10-13T10:36:22.431Z,21.48
2022-10-13T10:38:54.299Z,21.50
2022-10-13T10:41:36.730Z,21.62
2022-10-13T10:44:10.875Z,21.67
2022-10-13T10:46:43.302Z,21.69
2022-10-13T10:49:15.500Z,21.91
2022-10-13T10:51:42.816Z,22.03
2022-10-13T10:54:27.301Z,22.06
2022-10-13T10:56:58.299Z,21.95
2022-10-13T10:59:50.053Z,22.11
2022-10-13T11:02:37.384Z,22.37
2022-10-13T11:05:06.354Z,22.34
2022-10-13T11:07:54.724Z,22.46
2022-10-13T11:13:20.236Z,22.71
2022-10-13T11:15:48.812Z,22.47
2022-10-13T11:18:53.015Z,22.73
2022-10-13T11:21:22.384Z,22.83
2022-10-13T11:23:50.119Z,22.76
2022-10-13T11:26:29.791Z,22.72
2022-10-13T11:28:56.950Z,22.47
2022-10-13T11:31:35.135Z,22.28
2022-10-13T11:34:03.172Z,22.18
2022-10-13T11:36:38.854Z,21.91
2022-10-13T11:39:28.950Z,21.83
2022-10-13T11:42:05.620Z,21.67
2022-10-13T11:44:39.813Z,21.40
2022-10-13T11:47:17.119Z,21.33
2022-10-13T11:50:18.224Z,20.95
2022-10-13T11:53:03.189Z,20.99
2022-10-13T11:55:39.687Z,20.98
2022-10-13T11:58:14.246Z,20.87
2022-10-13T12:00:53.696Z,20.47
2022-10-13T12:03:26.124Z,20.53
2022-10-13T12:05:55.281Z,20.27
2022-10-13T12:08:23.617Z,20.54
2022-10-13T12:10:56.767Z,20.69
2022-10-13T12:13:28.228Z,20.79
2022-10-13T12:16:00.640Z,20.80
2022-10-13T12:18:30.832Z,20.62
2022-10-13T12:20:59.839Z,20.72
2022-10-13T12:23:27.539Z,20.51
2022-10-13T12:25:55.346Z,20.37
2022-10-13T12:28:22.111Z,20.32
2022-10-13T12:30:52.757Z,20.43
2022-10-13T12:33:25.890Z,20.46
2022-10-13T12:35:54.725Z,20.30
2022-10-13T12:38:22.268Z,20.48
2022-10-13T12:40:51.416Z,20.32
2022-10-13T12:43:24.833Z,20.49
2022-10-13T12:45:51.776Z,20.64
2022-10-13T12:48:35.545Z,20.72
2022-10-13T12:51:24.920Z,20.63
2022-10-13T12:53:52.832Z,20.37
2022-10-13T12:56:30.396Z,20.33
2022-10-13T12:58:59.880Z,20.37
2022-10-13T13:05:00.871Z,20.99
2022-10-13T13:07:34.391Z,21.66
2022-10-13T13:10:10.555Z,21.78
2022-10-13T13:12:40.047Z,22.26
2022-10-13T13:15:35.666Z,22.40
2022-10-13T13:18:30.114Z,22.08
2022-10-13T13:20:57.213Z,21.63
2022-10-13T13:23:27.798Z,21.48
2022-10-13T13:26:01.707Z,21.36
2022-10-13T13:28:30.494Z,21.24
2022-10-13T13:30:57.113Z,21.07
2022-10-13T13:33:23.678Z,20.94
2022-10-13T13:35:52.312Z,20.78
2022-10-13T13:38:19.049Z,20.85
2022-10-13T13:40:49.390Z,21.03
2022-10-13T13:43:16.132Z,20.97
2022-10-13T13:45:43.105Z,20.94
2022-10-13T13:48:12.569Z,20.88
2022-10-13T13:50:40.019Z,20.75
2022-10-13T13:53:08.889Z,20.93
2022-10-13T13:55:35.523Z,21.09
2022-10-13T13:58:07.108Z,20.91
2022-10-13T14:00:35.669Z,20.89
2022-10-13T14:03:04.911Z,20.92
2022-10-13T14:05:31.440Z,20.34
2022-10-13T14:07:58.293Z,20.51
2022-10-13T14:10:26.130Z,20.18
2022-10-13T14:12:52.618Z,19.50
2022-10-13T14:15:23.443Z,19.65
2022-10-13T14:17:52.937Z,19.60
2022-10-13T14:20:20.042Z,19.48
2022-10-13T14:22:46.785Z,19.18
2022-10-13T14:25:13.844Z,19.17
2022-10-13T14:27:40.637Z,19.14
2022-10-13T14:30:08.567Z,19.16
2022-10-13T14:32:40.888Z,18.97
2022-10-13T14:35:08.485Z,18.97
2022-10-13T14:37:35.424Z,18.97
2022-10-13T14:40:02.689Z,19.00
2022-10-13T14:42:29.631Z,18.97
2022-10-13T14:44:56.555Z,18.94
2022-10-13T14:47:25.493Z,19.11
2022-10-13T14:49:57.143Z,19.10
2022-10-13T14:52:24.012Z,19.19
2022-10-13T14:54:51.091Z,19.35
2022-10-13T14:57:19.354Z,19.52
2022-10-13T14:59:46.239Z,19.62
2022-10-13T15:02:12.798Z,19.63
2022-10-13T15:04:41.915Z,19.74
2022-10-13T15:07:13.671Z,19.52
2022-10-13T15:09:53.163Z,19.59
2022-10-13T15:12:30.407Z,19.12
2022-10-13T15:15:03.171Z,19.20
2022-10-13T15:17:31.019Z,19.14
2022-10-13T15:20:00.030Z,19.14
2022-10-13T15:22:29.290Z,19.08
2022-10-13T15:24:56.533Z,19.09
2022-10-13T15:27:23.115Z,19.09
2022-10-13T15:29:51.951Z,19.02
2022-10-13T15:32:20.939Z,18.99
2022-10-13T15:34:49.432Z,18.98
2022-10-13T15:37:16.289Z,18.78
2022-10-13T15:39:44.771Z,18.68
2022-10-13T15:42:12.061Z,18.62
2022-10-13T15:47:25.575Z,18.44
2022-10-13T15:49:52.201Z,18.57
2022-10-13T15:52:18.835Z,18.46
2022-10-13T15:54:47.621Z,18.48
2022-10-13T15:57:14.139Z,18.35
2022-10-13T15:59:40.770Z,18.31
2022-10-13T16:02:07.308Z,18.36
2022-10-13T16:04:37.580Z,18.18
2022-10-13T16:07:05.743Z,17.99
2022-10-13T16:09:32.794Z,17.96
2022-10-13T16:12:01.611Z,17.98
2022-10-13T16:14:28.170Z,17.99
2022-10-13T16:16:54.998Z,17.81
2022-10-13T16:19:22.078Z,17.84
2022-10-13T16:21:48.798Z,17.80
2022-10-13T16:24:15.776Z,17.73
2022-10-13T16:26:42.702Z,17.83
2022-10-13T16:29:10.820Z,17.59
2022-10-13T16:31:37.826Z,17.66
2022-10-13T16:34:04.364Z,17.71
2022-10-13T16:36:31.106Z,17.41
2022-10-13T16:38:58.570Z,17.54
2022-10-13T16:41:27.588Z,17.22
2022-10-13T16:43:55.329Z,17.57
2022-10-13T16:46:25.001Z,17.55
2022-10-13T16:48:51.524Z,17.38
2022-10-13T16:51:19.669Z,17.36
2022-10-13T16:53:51.435Z,17.58
2022-10-13T16:56:18.852Z,17.40
2022-10-13T16:58:45.458Z,17.31
2022-10-13T17:01:13.483Z,17.47
2022-10-13T17:03:44.106Z,17.41
2022-10-13T17:06:12.410Z,17.52
2022-10-13T17:08:39.011Z,17.56
2022-10-13T17:11:06.953Z,17.51
2022-10-13T17:13:36.068Z,17.44
2022-10-13T17:16:03.452Z,17.46
2022-10-13T17:18:30.862Z,17.46
2022-10-13T17:21:00.695Z,17.39
2022-10-13T17:23:28.429Z,17.39
2022-10-13T17:25:56.304Z,17.41
2022-10-13T17:28:23.643Z,17.40
2022-10-13T17:30:59.070Z,17.46
2022-10-13T17:33:26.310Z,17.47
2022-10-13T17:35:58.103Z,17.46
2022-10-13T17:38:26.318Z,17.61
2022-10-13T17:40:56.120Z,17.58
2022-10-13T17:43:26.268Z,17.64
2022-10-13T17:45:53.055Z,17.56
2022-10-13T17:48:23.096Z,17.56
2022-10-13T17:50:50.557Z,17.56
2022-10-13T17:53:17.418Z,17.54
2022-10-13T17:55:46.484Z,17.52
2022-10-13T17:58:13.335Z,17.59
2022-10-13T18:01:11.428Z,17.52
2022-10-13T18:03:26.878Z,17.45
2022-10-13T18:05:54.263Z,17.44
2022-10-13T18:08:21.191Z,17.46
2022-10-13T18:11:07.745Z,17.47
2022-10-13T18:13:35.648Z,17.48
2022-10-13T18:16:03.868Z,17.38
2022-10-13T18:18:31.236Z,17.36
2022-10-13T18:21:00.360Z,17.32
2022-10-13T18:23:28.829Z,17.23
2022-10-13T18:26:00.397Z,17.27
2022-10-13T18:28:29.578Z,17.24
2022-10-13T18:31:02.319Z,17.17
2022-10-13T18:33:29.704Z,17.17
2022-10-13T18:35:56.313Z,17.12
2022-10-13T18:38:23.735Z,17.13
2022-10-13T18:40:50.355Z,17.09
2022-10-13T18:43:18.679Z,17.20
2022-10-13T18:45:45.373Z,17.08
2022-10-13T18:48:12.181Z,16.93
2022-10-13T18:50:39.312Z,17.05
2022-10-13T18:53:05.980Z,17.06
2022-10-13T18:55:33.657Z,17.12
2022-10-13T18:58:00.171Z,17.02
2022-10-13T19:00:28.335Z,17.07
2022-10-13T19:02:54.903Z,17.08
2022-10-13T19:05:24.159Z,17.02
2022-10-13T19:07:50.964Z,16.91
2022-10-13T19:10:17.505Z,16.88
2022-10-13T19:12:44.407Z,16.94
2022-10-13T19:15:11.789Z,16.92
2022-10-13T19:17:39.893Z,16.63
2022-10-13T19:20:07.363Z,16.74
2022-10-13T19:22:35.865Z,16.82
2022-10-13T19:25:02.432Z,16.38
2022-10-13T19:27:28.961Z,16.51
2022-10-13T19:29:55.548Z,16.61
2022-10-13T19:32:22.334Z,16.70
2022-10-13T19:34:50.647Z,16.41
2022-10-13T19:37:19.110Z,16.44
2022-10-13T19:39:46.504Z,16.44
2022-10-13T19:42:13.112Z,16.16
2022-10-13T19:44:39.652Z,16.25
2022-10-13T19:47:06.643Z,16.40
2022-10-13T19:49:33.185Z,16.53
2022-10-13T19:52:01.533Z,16.43
2022-10-13T19:54:33.622Z,16.42
2022-10-13T19:57:00.915Z,16.25
2022-10-13T19:59:27.724Z,16.47
2022-10-13T20:01:54.834Z,16.43
2022-10-13T20:04:31.646Z,16.28
2022-10-13T20:06:58.447Z,16.38
2022-10-13T20:09:31.540Z,16.38
2022-10-13T20:11:58.391Z,16.47
2022-10-13T20:14:26.293Z,16.50
2022-10-13T20:16:54.155Z,16.27
2022-10-13T20:19:20.683Z,16.05
2022-10-13T20:21:47.538Z,16.05
2022-10-13T20:24:14.402Z,16.16
2022-10-13T20:26:42.784Z,16.32
2022-10-13T20:29:10.003Z,16.11
2022-10-13T20:31:38.424Z,16.25
2022-10-13T20:34:04.972Z,16.23
2022-10-13T20:36:38.855Z,16.37
2022-10-13T20:39:06.197Z,16.32
2022-10-13T20:41:33.347Z,16.33
2022-10-13T20:44:02.605Z,16.31
2022-10-13T20:46:29.275Z,16.28
2022-10-13T20:49:14.542Z,16.25
2022-10-13T20:51:42.116Z,16.24
2022-10-13T20:54:09.446Z,16.19
2022-10-13T20:56:36.215Z,15.90
2022-10-13T20:59:05.022Z,15.73
2022-10-13T21:01:32.608Z,16.12
2022-10-13T21:03:59.178Z,16.19
2022-10-13T21:06:26.602Z,16.13
2022-10-13T21:08:54.071Z,16.25
2022-10-13T21:11:22.112Z,16.36
2022-10-13T21:13:49.542Z,16.33
2022-10-13T21:16:20.524Z,16.37
2022-10-13T21:18:52.949Z,16.40
2022-10-13T21:21:21.552Z,16.47
2022-10-13T21:23:50.299Z,16.31
2022-10-13T21:26:21.646Z,16.24
2022-10-13T21:28:49.687Z,16.32
2022-10-13T21:31:19.961Z,16.32
2022-10-13T21:33:46.734Z,16.23
2022-10-13T21:36:15.335Z,16.34
2022-10-13T21:38:43.555Z,16.38
2022-10-13T21:41:12.473Z,16.40
2022-10-13T21:43:40.756Z,16.37
2022-10-13T21:46:11.952Z,16.45
2022-10-13T21:48:39.975Z,16.44
2022-10-13T21:51:16.191Z,16.43
2022-10-13T21:53:43.654Z,16.40
2022-10-13T21:56:11.745Z,16.35
2022-10-13T21:58:38.499Z,16.40
2022-10-13T22:01:06.287Z,16.26
2022-10-13T22:03:34.771Z,16.37
2022-10-13T22:06:06.915Z,16.40
2022-10-13T22:08:39.441Z,16.45
2022-10-13T22:11:08.709Z,16.48
2022-10-13T22:13:35.951Z,16.43
2022-10-13T22:16:03.666Z,16.45
2022-10-13T22:18:30.635Z,16.45
2022-10-13T22:21:00.812Z,16.42
2022-10-13T22:23:29.064Z,16.35
2022-10-13T22:25:56.083Z,16.38
2022-10-13T22:28:23.269Z,16.39
2022-10-13T22:30:50.056Z,16.41
2022-10-13T22:33:16.933Z,16.37
2022-10-13T22:35:43.514Z,16.45
2022-10-13T22:38:12.469Z,16.49
2022-10-13T22:40:40.908Z,16.50
2022-10-13T22:43:07.764Z,16.39
2022-10-13T22:45:34.274Z,16.44
2022-10-13T22:48:00.823Z,16.45
2022-10-13T22:50:27.570Z,16.49
2022-10-13T22:52:54.383Z,16.44
2022-10-13T22:55:21.251Z,16.45
2022-10-13T22:57:49.208Z,16.47
2022-10-13T23:00:16.753Z,16.42
2022-10-13T23:02:43.285Z,16.43
2022-10-13T23:05:09.811Z,16.37
2022-10-13T23:07:36.576Z,16.46
2022-10-13T23:10:03.869Z,16.45
2022-10-13T23:12:30.409Z,16.32
2022-10-13T23:14:58.780Z,16.37
2022-10-13T23:17:28.616Z,16.28
2022-10-13T23:19:55.114Z,16.34
2022-10-13T23:22:21.822Z,16.36
2022-10-13T23:24:48.587Z,16.35
2022-10-13T23:27:34.369Z,16.43
2022-10-13T23:30:02.382Z,16.45
2022-10-13T23:32:28.954Z,16.44
2022-10-13T23:34:56.214Z,16.37
2022-10-13T23:37:23.334Z,16.39
2022-10-13T23:39:54.134Z,16.40
2022-10-13T23:42:22.743Z,16.40
2022-10-13T23:44:49.248Z,16.41
2022-10-13T23:47:17.170Z,16.28
2022-10-13T23:49:45.149Z,16.42
2022-10-13T23:52:11.697Z,16.36
2022-10-13T23:54:38.191Z,16.41
2022-10-13T23:57:07.717Z,16.45
2022-10-13T23:59:34.272Z,16.45
